Time;durP1;ratioP1;P1;durP2;ratioP2;P2;SDS_P1;SDS_P2;PMS_P1;PMS_P2;Temp;Humidity;BMP_temperature;BMP_pressure;BME280_temperature;BME280_humidity;BME280_pressure;Samples;Min_cycle;Max_cycle;Signal;HPM_P1;HPM_P2
2022/08/22 00:00:11;;;;;;;922.55;860.40;;;;;;;19.59;61.92;101129.00;683253;28;136271;-63
2022/08/22 00:00:39;;;;;;;921.00;858.92;;;;;;;19.58;62.00;101135.56;685860;28;60168;-62
2022/08/22 00:01:09;;;;;;;918.78;856.78;;;;;;;19.58;61.94;101135.56;683312;28;138676;-63
2022/08/22 00:01:41;;;;;;;915.55;853.72;;;;;;;19.55;62.00;101131.34;683377;28;137743;-63
2022/08/22 00:02:06;;;;;;;911.10;849.28;;;;;;;19.61;61.98;101135.09;681742;28;157931;-63
2022/08/22 00:02:31;;;;;;;903.40;841.88;;;;;;;19.60;61.66;101141.63;684209;28;113800;-63
2022/08/22 00:03:08;;;;;;;914.90;852.90;;;;;;;19.59;61.80;101137.22;683952;28;116388;-61
2022/08/22 00:03:37;;;;;;;917.35;855.45;;;;;;;19.57;61.57;101137.44;683423;28;137802;-62
2022/08/22 00:04:05;;;;;;;909.08;847.38;;;;;;;19.55;61.78;101142.31;680730;28;135881;-62
2022/08/22 00:04:31;;;;;;;909.38;847.72;;;;;;;19.53;61.88;101135.38;680802;28;136161;-63
2022/08/22 00:04:58;;;;;;;904.88;843.28;;;;;;;19.50;61.81;101128.47;681368;28;113276;-62
2022/08/22 00:05:27;;;;;;;912.22;850.50;;;;;;;19.54;61.86;101132.41;682239;28;137841;-63
2022/08/22 00:06:00;;;;;;;909.28;847.80;;;;;;;19.54;61.78;101135.16;683463;28;138061;-63
2022/08/22 00:06:26;;;;;;;910.90;849.33;;;;;;;19.53;62.14;101143.59;683158;28;138608;-63
2022/08/22 00:06:54;;;;;;;904.07;842.53;;;;;;;19.52;61.91;101136.47;682566;28;139322;-63
2022/08/22 00:07:21;;;;;;;911.22;849.15;;;;;;;19.51;62.10;101138.34;683178;28;137771;-63
2022/08/22 00:07:47;;;;;;;912.45;850.65;;;;;;;19.50;61.99;101136.69;683395;28;136090;-63
2022/08/22 00:08:15;;;;;;;914.83;852.90;;;;;;;19.52;62.18;101131.81;683251;28;136401;-63
2022/08/22 00:08:43;;;;;;;909.25;847.65;;;;;;;19.54;62.08;101132.41;683186;28;138002;-61
2022/08/22 00:09:28;;;;;;;915.72;853.83;;;;;;;19.55;62.24;101142.31;680713;28;137754;-62
2022/08/22 00:09:57;;;;;;;915.00;853.10;;;;;;;19.55;62.13;101131.34;681909;28;136054;-62
2022/08/22 00:10:23;;;;;;;902.60;841.10;;;;;;;19.54;62.12;101140.63;681005;28;136158;-60
2022/08/22 00:10:53;;;;;;;911.13;849.42;;;;;;;19.56;62.18;101134.91;681387;28;138098;-62
2022/08/22 00:11:24;;;;;;;915.78;853.90;;;;;;;19.57;61.96;101142.09;682667;28;136198;-62
2022/08/22 00:11:50;;;;;;;916.08;854.17;;;;;;;19.56;62.03;101134.91;680336;28;160685;-62
2022/08/22 00:12:17;;;;;;;911.35;849.38;;;;;;;19.54;61.92;101137.88;685220;28;159339;-62
2022/08/22 00:12:44;;;;;;;902.17;840.78;;;;;;;19.54;62.17;101132.41;691169;28;136569;-61
2022/08/22 00:13:11;;;;;;;906.50;844.88;;;;;;;19.50;62.20;101136.69;691172;28;136732;-62
2022/08/22 00:13:37;;;;;;;907.85;846.15;;;;;;;19.53;62.07;101132.63;691259;28;138298;-62
2022/08/22 00:14:16;;;;;;;907.10;845.40;;;;;;;19.47;62.03;101130.81;691177;28;137896;-62
2022/08/22 00:14:44;;;;;;;919.00;857.00;;;;;;;19.51;62.14;101130.13;686828;28;137505;-62
2022/08/22 00:15:09;;;;;;;908.22;846.53;;;;;;;19.50;62.04;101136.69;684246;28;137887;-64
2022/08/22 00:15:32;;;;;;;905.40;843.83;;;;;;;19.48;62.04;101136.06;684177;28;115566;-62
2022/08/22 00:15:59;;;;;;;911.58;849.88;;;;;;;19.50;62.26;101136.69;684895;28;90716;-62
2022/08/22 00:16:24;;;;;;;913.90;852.17;;;;;;;19.50;62.13;101135.81;683322;28;136822;-62
2022/08/22 00:16:55;;;;;;;924.92;862.67;;;;;;;19.49;62.12;101135.00;682433;28;138549;-62
2022/08/22 00:17:28;;;;;;;910.50;848.45;;;;;;;19.49;62.03;101136.91;682979;28;136029;-62
2022/08/22 00:17:56;;;;;;;902.67;841.17;;;;;;;19.46;62.24;101135.44;683337;28;137682;-62
2022/08/22 00:18:22;;;;;;;900.30;838.88;;;;;;;19.45;62.08;101133.78;684858;28;138003;-63
2022/08/22 00:18:51;;;;;;;920.03;858.05;;;;;;;19.44;62.11;101132.94;688645;28;60407;-62
2022/08/22 00:19:24;;;;;;;915.58;853.70;;;;;;;19.44;62.40;101134.84;686845;28;115096;-62
2022/08/22 00:19:49;;;;;;;911.15;849.50;;;;;;;19.42;62.17;101134.25;685104;28;158621;-63
2022/08/22 00:20:17;;;;;;;908.88;847.38;;;;;;;19.42;62.24;101134.25;686064;28;137752;-61
2022/08/22 00:20:42;;;;;;;909.03;847.42;;;;;;;19.37;62.15;101126.72;686080;28;136396;-59
2022/08/22 00:21:10;;;;;;;915.45;853.65;;;;;;;19.40;62.67;101136.34;685814;28;138086;-62
2022/08/22 00:21:38;;;;;;;913.13;851.47;;;;;;;19.40;62.26;101128.13;684962;28;160454;-62
2022/08/22 00:22:04;;;;;;;912.38;850.63;;;;;;;19.40;62.34;101131.72;685188;28;136145;-62
2022/08/22 00:22:31;;;;;;;912.00;850.28;;;;;;;19.39;62.49;101132.78;686083;28;137649;-62
2022/08/22 00:22:56;;;;;;;915.70;853.85;;;;;;;19.38;62.31;101130.28;685950;28;137442;-63
2022/08/22 00:23:22;;;;;;;908.55;846.83;;;;;;;19.37;62.18;101134.06;686686;28;114766;-62
2022/08/22 00:23:47;;;;;;;909.53;847.83;;;;;;;19.37;62.40;101129.44;686117;28;136437;-62
2022/08/22 00:24:14;;;;;;;905.55;843.92;;;;;;;19.37;62.47;101131.31;686453;28;114903;-62
2022/08/22 00:24:42;;;;;;;911.97;850.25;;;;;;;19.37;62.61;101131.31;685690;28;138147;-60
2022/08/22 00:25:13;;;;;;;906.47;844.80;;;;;;;19.37;62.54;101136.81;685623;28;137763;-62
2022/08/22 00:25:41;;;;;;;910.35;848.72;;;;;;;19.37;62.49;101125.84;685789;28;137141;-62
2022/08/22 00:26:06;;;;;;;907.92;846.33;;;;;;;19.31;62.55;101134.97;683206;28;136386;-62
2022/08/22 00:26:39;;;;;;;901.25;839.80;;;;;;;19.29;62.72;101135.19;686259;28;115133;-62
2022/08/22 00:27:02;;;;;;;914.22;852.05;;;;;;;19.30;62.63;101128.66;684303;28;136196;-61
2022/08/22 00:27:28;;;;;;;917.97;855.65;;;;;;;19.27;62.65;101129.94;688256;28;69223;-60
2022/08/22 00:27:54;;;;;;;906.50;844.95;;;;;;;19.28;62.80;101128.06;686021;28;138097;-62
2022/08/22 00:28:19;;;;;;;910.35;848.58;;;;;;;19.27;62.62;101129.13;686118;28;136489;-61
2022/08/22 00:28:43;;;;;;;919.95;857.92;;;;;;;19.24;62.86;101130.41;685701;28;138156;-62
2022/08/22 00:29:08;;;;;;;915.92;854.05;;;;;;;19.23;62.63;101130.63;684658;28;92316;-62
2022/08/22 00:29:34;;;;;;;906.25;844.55;;;;;;;19.21;62.98;101128.09;683712;28;115115;-61
2022/08/22 00:30:12;;;;;;;896.28;834.97;;;;;;;19.21;62.85;101130.84;683042;28;138765;-62
2022/08/22 00:30:40;;;;;;;910.95;849.20;;;;;;;19.22;62.75;101128.97;684577;28;137695;-62
2022/08/22 00:31:08;;;;;;;915.80;853.75;;;;;;;19.18;62.78;101123.06;685841;28;138005;-62
2022/08/22 00:31:34;;;;;;;904.67;843.08;;;;;;;19.22;62.99;101128.97;683197;28;137747;-61
2022/08/22 00:32:04;;;;;;;902.45;840.90;;;;;;;19.19;62.96;101126.66;682525;28;137974;-61
2022/08/22 00:32:31;;;;;;;913.38;851.53;;;;;;;19.17;63.05;101129.63;686018;28;137767;-62
2022/08/22 00:32:57;;;;;;;918.60;856.60;;;;;;;19.19;63.25;101132.16;685921;28;137988;-60
2022/08/22 00:33:27;;;;;;;918.53;856.40;;;;;;;19.17;62.97;101132.38;685994;28;136434;-62
2022/08/22 00:33:52;;;;;;;918.85;856.83;;;;;;;19.16;63.21;101127.13;686055;28;138293;-61
2022/08/22 00:34:21;;;;;;;910.13;848.40;;;;;;;19.16;63.28;101124.38;686844;28;115107;-62
2022/08/22 00:34:47;;;;;;;916.15;854.25;;;;;;;19.19;63.32;101126.66;683357;28;137763;-61
2022/08/22 00:35:17;;;;;;;906.63;845.10;;;;;;;19.21;63.19;101121.81;683280;28;136445;-61
2022/08/22 00:35:41;;;;;;;912.63;850.90;;;;;;;19.23;63.29;101127.88;683233;28;136535;-62
2022/08/22 00:36:09;;;;;;;912.08;850.35;;;;;;;19.23;63.24;101126.00;685998;28;92277;-61
2022/08/22 00:36:34;;;;;;;905.20;843.70;;;;;;;19.23;63.15;101120.53;685974;28;136271;-62
2022/08/22 00:37:01;;;;;;;912.20;850.25;;;;;;;19.23;63.15;101120.53;684457;28;115117;-61
2022/08/22 00:37:29;;;;;;;923.83;861.33;;;;;;;19.25;63.03;101123.88;685715;28;138015;-62
2022/08/22 00:37:58;;;;;;;919.35;857.20;;;;;;;19.27;63.07;101129.94;685508;28;138816;-61
2022/08/22 00:38:27;;;;;;;921.70;859.53;;;;;;;19.28;63.10;101130.81;685819;28;137916;-59
2022/08/22 00:38:53;;;;;;;914.03;852.20;;;;;;;19.29;62.84;101128.88;686365;28;137871;-62
2022/08/22 00:39:18;;;;;;;921.03;858.72;;;;;;;19.30;62.98;101127.84;690053;28;137966;-61
2022/08/22 00:39:43;;;;;;;918.30;856.28;;;;;;;19.31;62.84;101115.81;689183;28;114557;-62
2022/08/22 00:40:15;;;;;;;910.67;848.85;;;;;;;19.39;62.75;101131.97;688408;28;138342;-60
2022/08/22 00:40:52;;;;;;;918.67;856.63;;;;;;;19.42;62.39;101128.78;687929;28;136000;-62
2022/08/22 00:41:27;;;;;;;893.88;832.70;;;;;;;19.45;62.42;101131.88;683841;28;137557;-62
2022/08/22 00:42:06;;;;;;;912.63;850.85;;;;;;;19.43;62.52;101125.78;685130;28;137906;-63
2022/08/22 00:42:46;;;;;;;915.42;853.53;;;;;;;19.46;62.41;101124.50;685880;28;138403;-62
2022/08/22 00:43:33;;;;;;;915.03;853.08;;;;;;;19.46;62.29;101124.50;685964;28;136112;-62
2022/08/22 00:44:30;;;;;;;913.55;851.70;;;;;;;19.44;62.13;101121.97;685563;28;136014;-61
2022/08/22 00:45:40;;;;;;;917.75;855.75;;;;;;;19.41;62.23;101125.19;682530;28;160676;-62
2022/08/22 00:46:14;;;;;;;910.00;848.30;;;;;;;19.36;62.30;101125.03;685376;28;136056;-62
2022/08/22 00:46:48;;;;;;;922.10;859.95;;;;;;;19.37;62.24;101126.72;685935;28;135994;-62
2022/08/22 00:47:23;;;;;;;919.15;856.33;;;;;;;19.36;62.11;101129.69;680841;28;156401;-61
2022/08/22 00:48:01;;;;;;;930.38;867.47;;;;;;;19.32;62.42;101122.97;685340;28;137699;-62
2022/08/22 00:48:58;;;;;;;924.53;862.30;;;;;;;19.31;62.40;101130.34;683224;28;137715;-61
2022/08/22 00:49:39;;;;;;;916.60;854.63;;;;;;;19.26;62.75;101130.16;683270;28;137823;-63
2022/08/22 00:50:12;;;;;;;919.85;857.88;;;;;;;19.24;62.71;101124.91;685804;28;136005;-61
2022/08/22 00:50:59;;;;;;;901.13;839.83;;;;;;;19.24;62.47;101121.34;686017;28;136008;-63
2022/08/22 00:51:35;;;;;;;921.25;859.17;;;;;;;19.25;62.80;101125.78;682809;28;137598;-63
2022/08/22 00:52:30;;;;;;;910.53;848.72;;;;;;;19.26;62.52;101130.16;661482;28;137552;-60
2022/08/22 00:53:23;;;;;;;912.85;851.03;;;;;;;19.25;62.71;101123.88;688403;28;137417;-63
2022/08/22 00:53:50;;;;;;;911.33;849.42;;;;;;;19.24;62.84;101122.19;677486;29;137489;-62
2022/08/22 00:54:20;;;;;;;905.70;844.00;;;;;;;19.24;62.76;101130.41;681966;28;138381;-63
2022/08/22 00:55:07;;;;;;;903.60;842.03;;;;;;;19.25;62.75;101132.06;685961;28;137886;-63
2022/08/22 00:55:40;;;;;;;913.40;851.42;;;;;;;19.25;62.78;101126.59;682742;28;137298;-63
2022/08/22 00:56:15;;;;;;;889.80;828.55;;;;;;;19.25;62.75;101118.38;685946;28;137468;-62
2022/08/22 00:56:59;;;;;;;873.17;812.58;;;;;;;19.25;62.75;101117.56;685831;28;138338;-63
2022/08/22 00:57:40;;;;;;;878.47;817.30;;;;;;;19.26;62.64;101124.69;681818;28;156285;-63
2022/08/22 00:58:21;;;;;;;870.33;809.60;;;;;;;19.27;62.72;101131.84;683209;28;137442;-62
2022/08/22 00:59:10;;;;;;;872.38;811.75;;;;;;;19.28;62.80;101130.81;684073;28;137577;-62
2022/08/22 01:00:08;;;;;;;885.03;824.03;;;;;;;19.30;62.64;101125.09;686034;28;136329;-62
2022/08/22 01:00:33;;;;;;;864.35;804.05;;;;;;;19.32;62.60;101128.44;685083;28;160680;-62
2022/08/22 01:01:00;;;;;;;857.80;797.50;;;;;;;19.32;62.94;101128.44;686685;28;136527;-63
2022/08/22 01:01:26;;;;;;;864.70;804.03;;;;;;;19.31;62.69;101122.13;685352;28;132151;-63
2022/08/22 01:01:52;;;;;;;864.47;804.10;;;;;;;19.32;62.72;101136.66;685217;28;137447;-63
2022/08/22 01:02:26;;;;;;;866.10;805.65;;;;;;;19.27;62.72;101126.38;686508;28;138140;-63
2022/08/22 01:03:28;;;;;;;862.03;801.78;;;;;;;19.29;62.47;101129.72;684903;28;161532;-63
2022/08/22 01:03:59;;;;;;;865.47;805.10;;;;;;;19.27;62.54;101129.13;684555;28;136068;-62
2022/08/22 01:04:30;;;;;;;864.85;804.55;;;;;;;19.28;62.63;101133.53;686242;28;137679;-62
2022/08/22 01:05:07;;;;;;;857.88;797.88;;;;;;;19.25;62.69;101132.06;686214;28;139441;-62
2022/08/22 01:05:40;;;;;;;857.90;797.85;;;;;;;19.24;62.39;101137.78;683742;28;137708;-62
2022/08/22 01:06:13;;;;;;;864.42;804.03;;;;;;;19.22;62.64;101129.78;686189;28;137404;-63
2022/08/22 01:06:47;;;;;;;859.25;798.97;;;;;;;19.21;62.47;101136.31;687831;28;84180;-62
2022/08/22 01:07:20;;;;;;;870.75;809.90;;;;;;;19.23;62.65;101139.69;681503;28;157526;-63
2022/08/22 01:07:53;;;;;;;863.78;803.53;;;;;;;19.24;62.62;101132.31;682900;28;159618;-63
2022/08/22 01:08:31;;;;;;;859.85;799.58;;;;;;;19.24;62.61;101133.13;683617;28;135911;-63
2022/08/22 01:09:03;;;;;;;856.90;796.75;;;;;;;19.24;62.56;101133.13;683418;28;136053;-63
2022/08/22 01:09:35;;;;;;;865.33;804.88;;;;;;;19.26;62.58;101136.50;683611;28;135775;-60
2022/08/22 01:10:05;;;;;;;872.55;811.92;;;;;;;19.27;62.55;101137.34;683437;28;136795;-60
2022/08/22 01:10:40;;;;;;;851.38;791.40;;;;;;;19.26;62.38;101138.38;683530;28;136120;-60
2022/08/22 01:11:10;;;;;;;866.75;806.25;;;;;;;19.25;62.39;101137.56;683306;28;137247;-61
2022/08/22 01:11:49;;;;;;;864.78;804.38;;;;;;;19.25;62.33;101142.22;682380;28;160723;-62
2022/08/22 01:12:22;;;;;;;866.78;806.17;;;;;;;19.22;62.15;101138.00;682090;28;157318;-62
2022/08/22 01:12:55;;;;;;;879.92;819.13;;;;;;;19.20;62.27;101140.13;683748;28;137713;-62
2022/08/22 01:13:30;;;;;;;872.83;812.13;;;;;;;19.17;62.29;101140.59;681150;28;137703;-62
2022/08/22 01:14:01;;;;;;;875.00;814.30;;;;;;;19.16;62.41;101146.28;680372;28;160639;-62
2022/08/22 01:14:39;;;;;;;874.90;814.22;;;;;;;19.14;62.45;101134.69;681164;28;136057;-60
2022/08/22 01:15:05;;;;;;;870.83;810.22;;;;;;;19.07;62.38;101137.50;681093;28;137372;-59
2022/08/22 01:15:29;;;;;;;863.45;802.95;;;;;;;19.09;62.61;101136.22;681392;28;115207;-62
2022/08/22 01:15:59;;;;;;;870.63;810.08;;;;;;;19.12;62.58;101143.13;681659;28;115441;-62
2022/08/22 01:16:35;;;;;;;872.00;811.40;;;;;;;19.08;62.62;101133.72;680039;28;160196;-62
2022/08/22 01:17:16;;;;;;;860.67;800.20;;;;;;;19.11;62.55;101144.22;681734;28;137710;-61
2022/08/22 01:18:16;;;;;;;857.05;796.95;;;;;;;19.10;62.46;101142.53;683853;28;136007;-62
2022/08/22 01:19:05;;;;;;;859.97;799.80;;;;;;;19.10;62.56;101145.28;683795;28;137608;-62
2022/08/22 01:19:45;;;;;;;869.60;809.15;;;;;;;19.09;62.31;101149.09;684234;28;136243;-61
2022/08/22 01:20:40;;;;;;;877.38;816.72;;;;;;;19.06;62.33;101147.63;686426;28;137705;-62
2022/08/22 01:21:47;;;;;;;860.10;799.78;;;;;;;18.99;62.57;101137.78;686440;28;137717;-62
2022/08/22 01:22:38;;;;;;;870.63;810.05;;;;;;;19.02;62.65;101146.38;682336;28;158104;-62
2022/08/22 01:23:31;;;;;;;870.75;810.25;;;;;;;19.01;62.67;101147.47;680681;28;137707;-61
2022/08/22 01:24:31;;;;;;;871.30;810.72;;;;;;;19.01;62.78;101141.13;683763;28;137673;-62
2022/08/22 01:25:32;;;;;;;873.35;812.67;;;;;;;19.02;62.76;101149.13;685453;28;137385;-63
2022/08/22 01:26:39;;;;;;;875.80;815.00;;;;;;;18.99;62.48;101151.47;686378;28;137670;-62
2022/08/22 01:27:36;;;;;;;876.40;815.40;;;;;;;18.99;62.51;101154.22;661424;28;160433;-64
2022/08/22 01:28:18;;;;;;;882.75;821.83;;;;;;;18.98;62.68;101150.66;677901;29;137366;-63
2022/08/22 01:29:20;;;;;;;877.90;817.17;;;;;;;18.95;62.44;101147.50;688883;28;137782;-62
2022/08/22 01:30:11;;;;;;;866.80;806.22;;;;;;;18.94;62.57;101154.88;685461;28;160414;-63
2022/08/22 01:31:12;;;;;;;870.42;809.90;;;;;;;18.93;62.88;101158.66;683485;28;137180;-63
2022/08/22 01:32:16;;;;;;;864.45;803.95;;;;;;;18.93;62.61;101150.47;672880;29;137844;-63
2022/08/22 01:33:08;;;;;;;877.70;816.90;;;;;;;18.92;62.97;101151.53;676589;29;156503;-63
2022/08/22 01:34:03;;;;;;;877.85;817.13;;;;;;;18.93;62.95;101155.94;678624;28;160733;-63
2022/08/22 01:34:54;;;;;;;871.10;810.58;;;;;;;18.95;62.83;101152.97;679876;28;130432;-62
2022/08/22 01:35:28;;;;;;;878.53;817.63;;;;;;;18.95;62.95;101153.84;680865;28;137501;-62
2022/08/22 01:36:41;;;;;;;868.63;808.08;;;;;;;18.94;62.93;101154.88;682344;28;137545;-62
2022/08/22 01:37:21;;;;;;;894.85;833.25;;;;;;;18.93;62.75;101155.94;669262;29;156393;-62
2022/08/22 01:38:04;;;;;;;879.92;819.08;;;;;;;18.94;62.81;101154.06;669521;29;160793;-62
2022/08/22 01:38:42;;;;;;;878.35;817.55;;;;;;;18.91;62.79;101155.31;672636;29;137715;-62
2022/08/22 01:39:34;;;;;;;885.80;824.80;;;;;;;18.91;62.77;101158.88;671268;29;137435;-63
2022/08/22 01:40:30;;;;;;;886.03;824.92;;;;;;;18.93;62.58;101158.66;680867;28;137852;-63
2022/08/22 01:41:24;;;;;;;886.00;824.95;;;;;;;18.87;62.54;101154.94;681065;28;136009;-63
2022/08/22 01:42:23;;;;;;;875.70;815.00;;;;;;;18.81;62.94;101155.78;682247;28;137681;-61
2022/08/22 01:43:08;;;;;;;880.78;819.88;;;;;;;18.80;63.09;101162.31;672678;29;138581;-62
2022/08/22 01:43:48;;;;;;;871.13;810.53;;;;;;;18.82;63.05;101151.97;682633;28;159906;-62
2022/08/22 01:44:41;;;;;;;878.88;818.00;;;;;;;18.84;63.00;101158.13;683694;28;137754;-62
2022/08/22 01:45:35;;;;;;;880.17;819.30;;;;;;;18.85;62.82;101157.03;678266;28;137679;-62
2022/08/22 01:46:14;;;;;;;879.03;818.20;;;;;;;18.83;62.90;101150.94;677103;29;160573;-62
2022/08/22 01:46:46;;;;;;;889.03;827.92;;;;;;;18.85;62.82;101162.50;677861;29;137703;-62
2022/08/22 01:47:12;;;;;;;877.40;816.50;;;;;;;18.85;62.74;101156.22;677898;28;155984;-62
2022/08/22 01:47:38;;;;;;;887.97;826.95;;;;;;;18.85;62.86;101159.78;683522;28;138014;-62
2022/08/22 01:48:05;;;;;;;876.55;815.85;;;;;;;18.85;62.98;101159.78;683921;28;115106;-62
2022/08/22 01:48:33;;;;;;;876.75;816.03;;;;;;;18.83;62.88;101161.88;683400;28;137875;-63
2022/08/22 01:48:59;;;;;;;882.33;821.42;;;;;;;18.83;62.94;101159.13;683562;28;136178;-62
2022/08/22 01:49:25;;;;;;;878.58;817.67;;;;;;;18.83;62.89;101166.53;683758;28;136415;-62
2022/08/22 01:49:53;;;;;;;879.75;818.92;;;;;;;18.79;63.02;101157.91;683636;28;138103;-62
2022/08/22 01:50:20;;;;;;;875.65;814.85;;;;;;;18.80;62.96;101158.75;682811;28;87206;-62
2022/08/22 01:50:45;;;;;;;873.78;813.17;;;;;;;18.78;62.98;101160.84;680955;28;138031;-62
2022/08/22 01:51:16;;;;;;;880.95;819.95;;;;;;;18.77;63.12;101159.19;681756;28;115252;-62
2022/08/22 01:51:45;;;;;;;883.65;822.55;;;;;;;18.76;63.01;101154.78;682699;28;137779;-62
2022/08/22 01:52:11;;;;;;;870.60;810.00;;;;;;;18.76;63.01;101152.03;684953;28;156550;-64
2022/08/22 01:52:37;;;;;;;874.88;814.17;;;;;;;18.76;63.14;101158.38;686311;28;138091;-62
2022/08/22 01:53:02;;;;;;;872.63;811.92;;;;;;;18.75;63.20;101167.63;686422;28;138256;-62
2022/08/22 01:53:26;;;;;;;886.42;825.28;;;;;;;18.71;62.98;101156.28;684480;28;115244;-62
2022/08/22 01:53:55;;;;;;;893.03;831.67;;;;;;;18.73;63.17;101167.00;685309;28;93071;-62
2022/08/22 01:54:25;;;;;;;892.47;831.22;;;;;;;18.72;63.30;101168.06;682946;28;160486;-63
2022/08/22 01:54:52;;;;;;;891.00;829.85;;;;;;;18.72;63.14;101160.69;684677;28;137409;-63
2022/08/22 01:55:22;;;;;;;889.92;828.70;;;;;;;18.72;63.09;101155.22;686262;28;136349;-62
2022/08/22 01:55:52;;;;;;;892.22;831.00;;;;;;;18.73;63.17;101156.06;685607;28;158867;-62
2022/08/22 01:56:17;;;;;;;890.63;829.42;;;;;;;18.73;63.30;101161.53;686372;28;136270;-62
2022/08/22 01:56:43;;;;;;;885.13;823.83;;;;;;;18.72;63.29;101157.94;687157;28;110676;-63
2022/08/22 01:57:06;;;;;;;882.05;820.58;;;;;;;18.73;63.48;101156.06;681386;28;157669;-63
2022/08/22 01:57:30;;;;;;;876.08;814.90;;;;;;;18.72;62.95;101163.41;685673;28;66412;-62
2022/08/22 01:57:53;;;;;;;885.67;824.35;;;;;;;18.71;63.25;101156.28;684242;28;92267;-63
2022/08/22 01:58:17;;;;;;;895.15;833.72;;;;;;;18.72;63.23;101154.38;682349;28;69194;-63
2022/08/22 01:58:44;;;;;;;884.50;823.40;;;;;;;18.70;63.12;101162.81;679368;29;92390;-62
2022/08/22 01:59:08;;;;;;;880.00;819.00;;;;;;;18.68;63.08;101162.22;678016;29;138032;-62
2022/08/22 01:59:31;;;;;;;886.03;825.03;;;;;;;18.68;63.16;101158.59;678735;29;91765;-63
2022/08/22 01:59:55;;;;;;;891.65;830.40;;;;;;;18.66;63.15;101156.09;679705;29;90769;-62
2022/08/22 02:00:19;;;;;;;887.78;826.78;;;;;;;18.65;63.19;101154.44;679709;29;92255;-62
2022/08/22 02:00:58;;;;;;;883.70;822.80;;;;;;;18.65;63.43;101159.06;682841;28;69400;-62
2022/08/22 02:01:27;;;;;;;880.47;819.60;;;;;;;18.64;63.42;101154.66;682263;28;136001;-62
2022/08/22 02:01:55;;;;;;;876.97;816.17;;;;;;;18.63;63.23;101159.28;682474;28;137471;-64
2022/08/22 02:02:44;;;;;;;888.53;827.22;;;;;;;18.63;63.36;101158.44;682853;28;161020;-63
2022/08/22 02:03:13;;;;;;;879.72;818.78;;;;;;;18.61;63.46;101161.41;679972;28;160949;-63
2022/08/22 02:03:39;;;;;;;881.20;820.20;;;;;;;18.61;63.42;101161.41;681506;28;138793;-63
2022/08/22 02:04:03;;;;;;;872.55;811.85;;;;;;;18.61;63.30;101155.09;683550;28;137795;-63
2022/08/22 02:04:34;;;;;;;890.47;829.33;;;;;;;18.60;63.51;101151.50;684245;28;115354;-63
2022/08/22 02:05:04;;;;;;;884.05;823.05;;;;;;;18.59;63.57;101155.31;681002;28;137403;-64
2022/08/22 02:05:30;;;;;;;882.58;821.58;;;;;;;18.59;63.45;101159.94;680989;28;137958;-64
2022/08/22 02:05:57;;;;;;;870.25;809.63;;;;;;;18.58;63.63;101155.53;682843;28;137885;-63
2022/08/22 02:06:24;;;;;;;867.05;806.53;;;;;;;18.59;63.42;101157.19;682718;28;138689;-64
2022/08/22 02:06:59;;;;;;;882.00;820.97;;;;;;;18.59;63.46;101155.31;682945;28;136398;-64
2022/08/22 02:07:23;;;;;;;890.08;828.55;;;;;;;18.60;63.60;101156.16;683418;28;137328;-63
2022/08/22 02:07:48;;;;;;;885.85;824.78;;;;;;;18.60;63.53;101151.50;685221;28;91722;-63
2022/08/22 02:08:20;;;;;;;889.15;827.95;;;;;;;18.57;63.65;101160.16;683599;28;136493;-63
2022/08/22 02:08:47;;;;;;;880.15;819.33;;;;;;;18.56;63.84;101153.03;683207;28;138463;-64
2022/08/22 02:09:18;;;;;;;875.25;814.45;;;;;;;18.55;63.66;101159.53;681025;28;136459;-63
2022/08/22 02:09:44;;;;;;;884.70;823.60;;;;;;;18.55;63.89;101154.06;681026;28;136184;-63
2022/08/22 02:10:12;;;;;;;877.20;816.35;;;;;;;18.54;63.77;101150.50;680907;28;136453;-62
2022/08/22 02:10:44;;;;;;;887.58;826.38;;;;;;;18.57;63.77;101154.69;681073;28;137892;-63
2022/08/22 02:11:08;;;;;;;894.15;832.65;;;;;;;18.59;63.73;101149.00;680913;28;137617;-63
2022/08/22 02:11:34;;;;;;;876.75;815.95;;;;;;;18.60;63.83;101154.25;684502;28;92282;-63
2022/08/22 02:11:59;;;;;;;883.33;822.35;;;;;;;18.60;63.86;101154.25;680035;28;138232;-63
2022/08/22 02:12:25;;;;;;;886.70;825.63;;;;;;;18.60;63.80;101154.25;681481;28;115150;-63
2022/08/22 02:12:53;;;;;;;875.45;814.75;;;;;;;18.57;63.96;101146.47;680450;28;137617;-63
2022/08/22 02:13:27;;;;;;;871.63;811.03;;;;;;;18.62;63.74;101151.28;681100;28;138056;-63
2022/08/22 02:13:55;;;;;;;878.30;817.60;;;;;;;18.62;63.99;101146.66;683311;28;135950;-63
2022/08/22 02:14:24;;;;;;;893.85;832.58;;;;;;;18.65;63.90;101156.31;683643;28;137779;-63
2022/08/22 02:14:52;;;;;;;882.00;821.08;;;;;;;18.65;63.90;101150.84;683632;28;137801;-63
2022/08/22 02:15:19;;;;;;;881.63;820.58;;;;;;;18.66;63.82;101144.31;682782;28;160009;-63
2022/08/22 02:15:45;;;;;;;882.03;820.97;;;;;;;18.66;63.78;101153.34;683468;28;137689;-63
2022/08/22 02:16:11;;;;;;;878.85;818.00;;;;;;;18.67;63.75;101160.50;683635;28;138381;-63
2022/08/22 02:16:38;;;;;;;884.13;823.03;;;;;;;18.64;63.63;101150.00;683426;28;136663;-63
2022/08/22 02:17:09;;;;;;;882.25;820.85;;;;;;;18.67;63.75;101156.94;681852;28;138056;-63
2022/08/22 02:17:33;;;;;;;864.42;803.95;;;;;;;18.67;63.61;101154.22;683266;28;137647;-63
2022/08/22 02:18:13;;;;;;;864.88;804.42;;;;;;;18.66;63.50;101155.28;684956;28;90632;-63
2022/08/22 02:18:54;;;;;;;869.55;808.95;;;;;;;18.62;63.71;101157.63;683334;28;135986;-63
2022/08/22 02:19:33;;;;;;;866.85;806.35;;;;;;;18.63;63.48;101155.72;683616;28;137799;-63
2022/08/22 02:19:59;;;;;;;866.78;806.28;;;;;;;18.63;63.48;101161.19;683547;28;136416;-65
2022/08/22 02:20:25;;;;;;;874.05;813.20;;;;;;;18.63;63.69;101161.19;683645;28;137972;-62
2022/08/22 02:20:58;;;;;;;870.17;809.42;;;;;;;18.62;63.72;101162.22;683302;28;137417;-62
2022/08/22 02:21:24;;;;;;;880.17;818.97;;;;;;;18.62;63.66;101157.63;683274;28;136519;-62
2022/08/22 02:21:50;;;;;;;876.35;815.35;;;;;;;18.63;63.61;101156.53;682283;28;138020;-63
2022/08/22 02:22:26;;;;;;;882.33;821.15;;;;;;;18.63;63.74;101159.28;683363;28;136398;-63
2022/08/22 02:22:54;;;;;;;873.90;813.13;;;;;;;18.61;63.54;101161.41;683442;28;136025;-61
2022/08/22 02:23:21;;;;;;;874.22;813.42;;;;;;;18.60;63.75;101162.44;683459;28;137822;-63
2022/08/22 02:23:48;;;;;;;878.03;817.10;;;;;;;18.58;63.80;101155.53;683423;28;138965;-63
2022/08/22 02:24:23;;;;;;;879.35;818.25;;;;;;;18.59;63.55;101158.06;683267;28;138469;-63
2022/08/22 02:24:50;;;;;;;867.10;806.50;;;;;;;18.58;63.73;101161.00;683469;28;137761;-63
2022/08/22 02:25:14;;;;;;;887.45;826.30;;;;;;;18.56;63.73;101155.75;683504;28;137774;-62
2022/08/22 02:25:50;;;;;;;883.75;822.75;;;;;;;18.56;63.84;101158.50;684460;28;114747;-63
2022/08/22 02:26:15;;;;;;;873.72;813.03;;;;;;;18.56;63.87;101155.75;683615;28;137703;-62
2022/08/22 02:26:42;;;;;;;872.35;811.72;;;;;;;18.56;63.95;101155.75;685099;28;90248;-63
2022/08/22 02:27:10;;;;;;;876.63;815.78;;;;;;;18.55;63.80;101160.38;684075;28;156740;-64
2022/08/22 02:27:36;;;;;;;876.63;815.80;;;;;;;18.54;63.82;101155.13;686073;28;136277;-63